Time;durP1;ratioP1;P1;durP2;ratioP2;P2;SDS_P1;SDS_P2;PMS_P1;PMS_P2;Temp;Humidity;BMP_temperature;BMP_pressure;BME280_temperature;BME280_humidity;BME280_pressure;Samples;Min_cycle;Max_cycle;Signal;HPM_P1;HPM_P2
2022/10/19 00:03:44;;;;;;;4.30;3.40;;;;;;;16.87;60.93;99728.42;224806;1257;139144;-67
2022/10/19 00:08:47;;;;;;;2.30;1.90;;;;;;;16.76;60.98;99725.45;224184;1243;138648;-68
2022/10/19 00:13:51;;;;;;;2.80;2.00;;;;;;;16.68;61.06;99724.46;224256;1252;140003;-69
2022/10/19 00:18:56;;;;;;;1.50;1.40;;;;;;;16.68;61.29;99720.32;224194;1248;139698;-65
2022/10/19 00:23:59;;;;;;;1.80;1.60;;;;;;;16.70;61.13;99719.25;224210;1253;139246;-65
2022/10/19 00:29:03;;;;;;;2.60;1.80;;;;;;;16.74;61.25;99723.83;224210;1252;140463;-69
2022/10/19 00:34:06;;;;;;;1.40;1.30;;;;;;;16.74;61.27;99723.47;224262;1248;138956;-69
2022/10/19 00:39:14;;;;;;;1.80;1.40;;;;;;;16.73;61.42;99715.25;224203;1257;139244;-68
2022/10/19 00:44:17;;;;;;;1.60;1.50;;;;;;;16.74;61.39;99717.38;224201;1254;139033;-66
2022/10/19 00:49:25;;;;;;;2.10;1.70;;;;;;;16.68;61.29;99716.06;224191;1254;139279;-71
2022/10/19 00:54:33;;;;;;;4.80;1.90;;;;;;;16.60;61.24;99713.25;224186;1254;138889;-69
2022/10/19 00:59:38;;;;;;;2.00;1.80;;;;;;;16.56;61.37;99704.59;224945;1258;140663;-70
2022/10/19 01:04:46;;;;;;;2.10;1.70;;;;;;;16.58;61.62;99703.01;224878;1244;138908;-66
2022/10/19 01:09:49;;;;;;;2.80;2.50;;;;;;;16.63;61.71;99694.37;224246;1247;141018;-69
2022/10/19 01:15:02;;;;;;;4.40;2.70;;;;;;;16.64;61.72;99689.64;224247;1251;139168;-65
2022/10/19 01:20:31;;;;;;;3.90;2.80;;;;;;;16.64;61.69;99687.83;224783;1244;139425;-63
2022/10/19 01:25:41;;;;;;;3.40;3.00;;;;;;;16.60;61.73;99682.26;224145;1260;138499;-68
2022/10/19 01:31:18;;;;;;;3.70;2.70;;;;;;;16.51;61.90;99679.13;224216;1254;139135;-63
2022/10/19 01:36:33;;;;;;;3.70;2.90;;;;;;;16.41;61.85;99671.00;224876;1244;139235;-66
2022/10/19 01:41:42;;;;;;;5.00;2.80;;;;;;;16.31;61.87;99665.45;224186;1254;139210;-68
2022/10/19 01:46:52;;;;;;;3.30;2.70;;;;;;;16.28;62.13;99657.77;224208;1250;140649;-67
2022/10/19 01:52:00;;;;;;;4.90;3.10;;;;;;;16.31;62.30;99657.56;224184;1246;139303;-68
2022/10/19 01:57:07;;;;;;;4.20;3.40;;;;;;;16.30;62.33;99659.08;224937;1244;140053;-68
2022/10/19 02:02:12;;;;;;;4.00;3.60;;;;;;;16.31;62.48;99666.36;225488;1213;141123;-64
2022/10/19 02:07:19;;;;;;;6.10;4.30;;;;;;;16.30;62.65;99663.02;224266;1251;139279;-64
2022/10/19 02:12:24;;;;;;;4.50;3.40;;;;;;;16.25;62.72;99656.25;224329;1251;140428;-64
2022/10/19 02:17:32;;;;;;;4.80;3.90;;;;;;;16.16;62.53;99653.71;224255;1250;139006;-62
2022/10/19 02:22:35;;;;;;;4.10;3.70;;;;;;;16.11;62.86;99655.20;224176;1252;139797;-61
2022/10/19 02:27:43;;;;;;;6.30;4.50;;;;;;;16.10;62.98;99659.55;224242;1254;140470;-65
2022/10/19 02:32:46;;;;;;;5.40;4.20;;;;;;;16.14;63.21;99653.88;224965;1243;139835;-61
2022/10/19 02:37:49;;;;;;;8.20;6.00;;;;;;;16.13;63.22;99653.77;224231;1252;139175;-64
2022/10/19 02:43:00;;;;;;;8.90;6.20;;;;;;;16.14;63.30;99650.63;224244;1245;138754;-63
2022/10/19 02:48:06;;;;;;;7.40;6.50;;;;;;;16.12;63.29;99640.44;224825;1244;140281;-63
2022/10/19 02:53:09;;;;;;;;;;;;;;;16.08;63.18;99641.75;224175;1260;139373;-62
2022/10/19 02:58:12;;;;;;;8.90;7.00;;;;;;;16.11;63.30;99640.48;224277;1251;125845;-64
2022/10/19 03:03:15;;;;;;;9.60;7.30;;;;;;;16.16;63.53;99643.84;224260;1257;139627;-64
2022/10/19 03:08:18;;;;;;;10.90;8.20;;;;;;;16.15;63.52;99640.40;224843;1252;141648;-64
2022/10/19 03:13:21;;;;;;;9.00;7.50;;;;;;;16.13;63.67;99631.21;224211;1257;139370;-63
2022/10/19 03:18:24;;;;;;;10.10;8.20;;;;;;;16.10;63.60;99638.05;224141;1254;138870;-62
2022/10/19 03:23:28;;;;;;;9.50;8.30;;;;;;;16.08;63.77;99643.05;224165;1254;139064;-62
2022/10/19 03:28:31;;;;;;;10.40;7.90;;;;;;;16.06;63.96;99635.65;224167;1247;138582;-63
2022/10/19 03:33:34;;;;;;;9.30;8.00;;;;;;;16.10;64.00;99631.41;224148;1250;140961;-62
2022/10/19 03:38:37;;;;;;;10.00;8.40;;;;;;;16.16;64.15;99640.27;224197;1254;139907;-62
2022/10/19 03:43:40;;;;;;;8.90;8.00;;;;;;;16.21;64.20;99639.56;224216;1254;139425;-66
2022/10/19 03:48:43;;;;;;;9.70;7.20;;;;;;;16.17;63.98;99637.70;224906;1238;138836;-63
2022/10/19 03:53:47;;;;;;;10.20;7.70;;;;;;;16.09;63.99;99629.00;224115;1260;138511;-65
2022/10/19 03:58:52;;;;;;;8.40;7.50;;;;;;;16.00;63.97;99629.68;224015;1238;138882;-63
2022/10/19 04:03:58;;;;;;;8.70;6.60;;;;;;;15.95;64.11;99629.14;224124;1254;138958;-68
2022/10/19 04:09:02;;;;;;;10.80;7.50;;;;;;;15.98;64.42;99619.07;224776;1251;140492;-63
2022/10/19 04:14:05;;;;;;;12.40;7.20;;;;;;;16.03;64.41;99613.86;224131;1251;139427;-63
2022/10/19 04:19:13;;;;;;;7.90;7.10;;;;;;;16.07;64.39;99614.16;224182;1251;139536;-64
2022/10/19 04:24:17;;;;;;;13.30;7.30;;;;;;;16.07;64.29;99613.77;224220;1257;139311;-64
2022/10/19 04:29:23;;;;;;;11.60;8.00;;;;;;;16.08;64.36;99613.87;224209;1251;139225;-63
2022/10/19 04:34:31;;;;;;;9.60;8.20;;;;;;;16.04;64.23;99613.80;224211;1255;139029;-62
2022/10/19 04:39:42;;;;;;;10.10;7.40;;;;;;;15.97;64.02;99613.59;224035;1253;139602;-65
2022/10/19 04:44:44;;;;;;;;;;;;;;;15.99;63.99;99612.79;223624;1250;139955;-63
2022/10/19 04:49:47;;;;;;;8.20;6.70;;;;;;;15.97;63.99;99607.38;224199;1251;125767;-60
2022/10/19 04:54:51;;;;;;;9.60;7.30;;;;;;;15.94;64.10;99604.34;224148;1254;140965;-61
2022/10/19 04:59:57;;;;;;;10.30;8.50;;;;;;;15.91;63.94;99603.73;224169;1254;138782;-60
2022/10/19 05:05:00;;;;;;;13.00;9.00;;;;;;;15.87;64.12;99604.71;224143;1254;139315;-62
2022/10/19 05:10:04;;;;;;;12.70;9.60;;;;;;;15.83;63.77;99604.83;224018;1262;139381;-62
2022/10/19 05:15:08;;;;;;;10.40;8.30;;;;;;;15.78;63.93;99606.06;224141;1252;139258;-60
2022/10/19 05:20:11;;;;;;;12.30;9.20;;;;;;;15.78;63.90;99610.91;224029;1250;140692;-63
2022/10/19 05:25:14;;;;;;;86.40;64.00;;;;;;;15.77;63.81;99614.77;224793;1243;140054;-61
2022/10/19 05:30:17;;;;;;;11.10;7.80;;;;;;;15.73;63.87;99615.41;223998;1251;139143;-61
2022/10/19 05:35:20;;;;;;;10.90;6.80;;;;;;;15.74;63.79;99611.96;224866;1250;138721;-63
2022/10/19 05:40:24;;;;;;;18.30;13.70;;;;;;;15.74;63.80;99609.11;224052;1249;140843;-64
2022/10/19 05:45:27;;;;;;;9.30;7.50;;;;;;;15.72;63.67;99617.42;223863;1251;138964;-62
2022/10/19 05:50:31;;;;;;;9.00;6.20;;;;;;;15.72;63.51;99623.01;224877;1240;138880;-63
2022/10/19 05:55:35;;;;;;;6.70;5.90;;;;;;;15.70;63.35;99623.70;224767;1254;139395;-62
2022/10/19 06:00:39;;;;;;;10.70;5.60;;;;;;;15.70;63.17;99626.35;224199;1248;139976;-66
2022/10/19 06:05:42;;;;;;;8.80;6.30;;;;;;;15.68;63.03;99628.88;224738;1243;139409;-65
2022/10/19 06:10:46;;;;;;;10.70;6.00;;;;;;;15.63;63.00;99640.12;224030;1254;139372;-63
2022/10/19 06:15:50;;;;;;;23.60;15.00;;;;;;;15.58;62.91;99643.65;224033;1251;139207;-63
2022/10/19 06:20:53;;;;;;;13.50;6.50;;;;;;;15.52;62.79;99641.45;224096;1257;140065;-65
2022/10/19 06:25:56;;;;;;;8.90;5.60;;;;;;;15.48;62.70;99639.06;224043;1244;139647;-63
2022/10/19 06:31:01;;;;;;;10.50;5.40;;;;;;;15.44;62.61;99648.27;224629;1244;139394;-62
2022/10/19 06:36:15;;;;;;;7.50;4.80;;;;;;;15.40;62.26;99651.77;224686;1244;139111;-65
2022/10/19 06:41:19;;;;;;;10.00;5.20;;;;;;;15.40;62.18;99648.73;224045;1251;139467;-64
2022/10/19 06:46:24;;;;;;;26.90;19.70;;;;;;;15.39;61.89;99651.14;223971;1250;139380;-65
2022/10/19 06:51:29;;;;;;;9.30;5.70;;;;;;;15.37;62.01;99654.29;224029;1254;139772;-64
2022/10/19 06:56:32;;;;;;;11.60;5.00;;;;;;;15.47;62.02;99660.59;224712;1244;139393;-65
2022/10/19 07:01:35;;;;;;;11.10;5.40;;;;;;;15.53;61.89;99671.79;224031;1254;140649;-67
2022/10/19 07:06:38;;;;;;;11.60;5.00;;;;;;;15.60;61.82;99674.48;224835;1244;139488;-64
2022/10/19 07:11:41;;;;;;;8.80;5.40;;;;;;;15.69;61.63;99670.95;224043;1251;139837;-64
2022/10/19 07:16:49;;;;;;;11.30;4.50;;;;;;;15.77;61.34;99670.89;223950;1247;139529;-65
2022/10/19 07:21:52;;;;;;;9.80;5.00;;;;;;;15.83;61.08;99679.25;224628;1244;139851;-65
2022/10/19 07:26:55;;;;;;;11.70;4.90;;;;;;;15.83;60.73;99681.05;224782;1240;140736;-72
2022/10/19 07:31:58;;;;;;;11.50;4.50;;;;;;;15.82;60.35;99683.98;224784;1256;139310;-69
2022/10/19 07:37:01;;;;;;;15.00;5.20;;;;;;;15.82;60.12;99685.79;224654;1247;139719;-64
2022/10/19 07:42:04;;;;;;;14.50;8.70;;;;;;;15.79;60.00;99679.88;223936;1252;138960;-64
2022/10/19 07:47:07;;;;;;;10.60;6.60;;;;;;;15.74;59.91;99687.59;223932;1250;139314;-64
2022/10/19 07:52:10;;;;;;;12.30;7.20;;;;;;;15.64;59.89;99696.91;224716;1244;139210;-63
2022/10/19 07:57:14;;;;;;;15.60;7.60;;;;;;;15.56;59.93;99699.42;224755;1244;139448;-64
2022/10/19 08:02:18;;;;;;;11.70;7.20;;;;;;;15.48;59.95;99695.39;223904;1260;139163;-69
2022/10/19 08:07:22;;;;;;;12.60;7.10;;;;;;;15.39;59.84;99688.85;224009;1254;140554;-69
2022/10/19 08:12:25;;;;;;;13.40;8.20;;;;;;;15.34;60.14;99689.19;224093;1244;139763;-70
2022/10/19 08:17:29;;;;;;;11.20;7.50;;;;;;;15.38;60.49;99689.23;223916;1244;141524;-70
2022/10/19 08:22:32;;;;;;;18.30;8.80;;;;;;;15.48;60.39;99684.45;224018;1238;139469;-67
2022/10/19 08:27:36;;;;;;;12.10;7.40;;;;;;;15.54;60.52;99687.45;223976;1254;139269;-63
2022/10/19 08:32:39;;;;;;;14.60;8.10;;;;;;;15.52;60.35;99683.46;224015;1244;139285;-66
2022/10/19 08:37:41;;;;;;;11.80;6.90;;;;;;;15.50;60.20;99686.80;223988;1252;139084;-63
2022/10/19 08:43:23;;;;;;;10.70;6.90;;;;;;;15.51;59.95;99684.42;224010;1246;140235;-64
2022/10/19 08:48:29;;;;;;;9.00;4.90;;;;;;;15.50;59.66;99688.94;223831;1245;139374;-64
2022/10/19 08:53:36;;;;;;;;;;;;;;;15.47;58.88;99689.01;224700;1243;139598;-63
2022/10/19 08:59:21;;;;;;;8.40;4.40;;;;;;;15.39;58.46;99685.66;224066;1258;127128;-66
2022/10/19 09:04:40;;;;;;;9.30;4.10;;;;;;;15.31;58.13;99683.84;223739;1246;139197;-65
2022/10/19 09:09:50;;;;;;;8.50;4.00;;;;;;;15.23;57.63;99679.45;224683;1244;140393;-65
2022/10/19 09:15:06;;;;;;;8.30;3.50;;;;;;;15.20;57.48;99685.92;223982;1245;139865;-64
2022/10/19 09:20:17;;;;;;;12.70;3.60;;;;;;;15.14;57.23;99687.80;223976;1247;140470;-64
2022/10/19 09:25:22;;;;;;;10.00;3.70;;;;;;;15.06;57.07;99692.83;223444;1250;140408;-65
2022/10/19 09:30:27;;;;;;;33.80;18.50;;;;;;;15.05;56.82;99688.77;224655;1237;139812;-63
2022/10/19 09:35:40;;;;;;;7.30;2.80;;;;;;;15.06;56.35;99685.52;223887;1251;139660;-63
2022/10/19 09:40:43;;;;;;;5.90;2.20;;;;;;;15.06;55.42;99674.77;224718;1238;139698;-63
2022/10/19 09:46:11;;;;;;;77.80;52.90;;;;;;;15.09;54.59;99683.80;224057;1251;139454;-64
2022/10/19 09:51:22;;;;;;;5.50;2.10;;;;;;;15.09;53.49;99690.10;223990;1245;139364;-64
2022/10/19 09:56:27;;;;;;;5.40;1.70;;;;;;;15.09;53.15;99688.63;223986;1245;140372;-63
2022/10/19 10:01:42;;;;;;;4.60;1.60;;;;;;;15.12;52.90;99685.56;223999;1258;139159;-64
2022/10/19 10:06:49;;;;;;;5.50;1.70;;;;;;;15.15;52.70;99684.66;224634;1241;139015;-64
2022/10/19 10:11:55;;;;;;;5.20;1.70;;;;;;;15.27;52.73;99676.80;224022;1254;139289;-65
2022/10/19 10:17:06;;;;;;;5.40;1.50;;;;;;;15.41;52.46;99667.09;223980;1251;139261;-64
2022/10/19 10:22:24;;;;;;;22.30;14.30;;;;;;;15.44;51.79;99668.66;223923;1244;139413;-65
2022/10/19 10:27:30;;;;;;;5.50;1.80;;;;;;;15.38;51.29;99675.69;223208;1245;139264;-66
2022/10/19 10:32:37;;;;;;;4.60;1.30;;;;;;;15.36;51.22;99677.61;223984;1254;139102;-64
2022/10/19 10:37:44;;;;;;;6.10;1.40;;;;;;;15.32;50.76;99681.64;223997;1249;139747;-61
2022/10/19 10:42:49;;;;;;;6.20;1.70;;;;;;;15.33;50.54;99684.13;223950;1254;139650;-65
2022/10/19 10:47:52;;;;;;;6.10;1.70;;;;;;;15.32;50.46;99683.63;223798;1252;138498;-64
2022/10/19 10:53:17;;;;;;;4.80;1.70;;;;;;;15.29;50.17;99681.73;223889;1245;139353;-71
2022/10/19 10:58:39;;;;;;;4.20;1.40;;;;;;;15.28;49.94;99675.35;224588;1244;139290;-65
2022/10/19 11:03:49;;;;;;;11.80;5.10;;;;;;;15.28;49.94;99672.47;224726;1236;138918;-68
2022/10/19 11:09:04;;;;;;;5.30;1.90;;;;;;;15.29;49.73;99668.13;223953;1245;140289;-68
2022/10/19 11:14:31;;;;;;;6.90;1.60;;;;;;;15.34;49.35;99675.98;223991;1246;139322;-65
2022/10/19 11:19:43;;;;;;;3.80;1.50;;;;;;;15.33;49.01;99680.16;223970;1245;139472;-65
2022/10/19 11:25:16;;;;;;;4.60;1.30;;;;;;;15.27;48.51;99684.17;223897;1245;138836;-69
2022/10/19 11:30:21;;;;;;;67.20;52.10;;;;;;;15.19;48.30;99693.69;223969;1245;139177;-69
2022/10/19 11:35:39;;;;;;;4.20;1.90;;;;;;;15.15;48.23;99690.91;223941;1253;139179;-67
2022/10/19 11:41:03;;;;;;;4.80;1.60;;;;;;;15.18;48.30;99689.65;223982;1242;139531;-67
2022/10/19 11:46:35;;;;;;;3.30;1.30;;;;;;;15.14;48.17;99679.94;223950;1244;139731;-68
2022/10/19 11:51:58;;;;;;;3.30;1.50;;;;;;;15.10;48.35;99672.48;223866;1245;139486;-67
2022/10/19 11:57:11;;;;;;;11.00;1.20;;;;;;;15.09;48.33;99668.50;224486;1244;209396;-67
2022/10/19 12:02:26;;;;;;;106.30;65.70;;;;;;;15.10;48.48;99666.42;223946;1252;139163;-71
2022/10/19 12:07:48;;;;;;;7.10;2.00;;;;;;;15.10;48.39;99662.30;223920;1255;140170;-66
2022/10/19 12:12:57;;;;;;;5.00;1.40;;;;;;;15.09;48.24;99654.16;223982;1245;139241;-69
2022/10/19 12:18:11;;;;;;;4.70;1.40;;;;;;;15.04;48.28;99644.32;223981;1252;139158;-68
2022/10/19 12:23:36;;;;;;;6.80;1.70;;;;;;;15.00;48.46;99636.60;223970;1248;139163;-67
2022/10/19 12:28:45;;;;;;;4.60;1.70;;;;;;;15.00;48.42;99640.55;223959;1251;139498;-67
2022/10/19 12:34:18;;;;;;;22.30;12.90;;;;;;;15.00;48.78;99645.00;223865;1244;139442;-71
2022/10/19 12:39:28;;;;;;;7.80;1.80;;;;;;;15.23;49.78;99645.45;223981;1251;139740;-68
2022/10/19 12:45:08;;;;;;;4.00;1.40;;;;;;;15.32;48.90;99643.42;224004;1246;139580;-68
2022/10/19 12:50:12;;;;;;;3.70;1.60;;;;;;;15.27;48.66;99639.09;223930;1254;139844;-69
2022/10/19 12:55:15;;;;;;;5.50;1.60;;;;;;;15.21;48.63;99642.21;224682;1245;139515;-69
2022/10/19 13:00:23;;;;;;;6.70;1.70;;;;;;;15.14;48.47;99644.71;223954;1245;140970;-69
2022/10/19 13:05:28;;;;;;;7.00;1.80;;;;;;;15.02;48.55;99646.95;223966;1251;139516;-67
2022/10/19 13:10:32;;;;;;;4.70;1.60;;;;;;;14.96;48.70;99652.46;223914;1252;139241;-66
2022/10/19 13:15:35;;;;;;;6.80;1.80;;;;;;;14.96;48.89;99647.77;224050;1245;139836;-66
2022/10/19 13:20:38;;;;;;;6.30;2.40;;;;;;;14.94;49.11;99642.55;224626;1247;139750;-66
2022/10/19 13:25:43;;;;;;;6.30;1.90;;;;;;;14.93;49.28;99643.02;224009;1259;139842;-67
2022/10/19 13:30:45;;;;;;;7.40;2.30;;;;;;;14.89;49.50;99650.06;223922;1254;139768;-67
2022/10/19 13:36:04;;;;;;;4.40;2.30;;;;;;;14.83;49.60;99658.11;224698;1244;139484;-68
2022/10/19 13:41:17;;;;;;;5.20;2.10;;;;;;;14.82;49.83;99659.46;223957;1251;139212;-69
2022/10/19 13:46:29;;;;;;;7.00;2.50;;;;;;;14.82;50.08;99658.52;223749;1251;139564;-69
2022/10/19 13:51:40;;;;;;;5.80;2.10;;;;;;;14.83;50.23;99661.17;223899;1251;140327;-67
2022/10/19 13:57:10;;;;;;;6.20;2.70;;;;;;;14.83;50.45;99654.90;224000;1250;139795;-69
2022/10/19 14:02:37;;;;;;;7.30;2.00;;;;;;;14.88;50.82;99658.50;224660;1244;139434;-64
2022/10/19 14:07:53;;;;;;;6.90;2.20;;;;;;;15.09;52.38;99649.67;224111;1254;139264;-67
2022/10/19 14:12:57;;;;;;;3.70;1.50;;;;;;;15.26;51.93;99648.13;224661;1244;140214;-64
2022/10/19 14:18:00;;;;;;;8.40;2.60;;;;;;;15.47;52.16;99648.36;224054;1252;139118;-65
2022/10/19 14:23:25;;;;;;;8.10;2.80;;;;;;;15.53;51.29;99646.15;224057;1252;139586;-65
2022/10/19 14:28:30;;;;;;;9.40;3.90;;;;;;;15.36;50.67;99645.80;223781;1247;139864;-65
2022/10/19 14:33:37;;;;;;;7.50;2.20;;;;;;;15.24;50.68;99654.67;224743;1240;140240;-64
2022/10/19 14:38:45;;;;;;;6.70;2.50;;;;;;;15.10;50.74;99650.16;224067;1253;139459;-66
2022/10/19 14:43:48;;;;;;;10.10;2.60;;;;;;;14.97;50.67;99648.24;224010;1245;139074;-65
2022/10/19 14:48:57;;;;;;;6.90;2.60;;;;;;;14.89;51.07;99648.95;224056;1244;140645;-67
2022/10/19 14:54:07;;;;;;;8.10;2.80;;;;;;;14.86;51.13;99651.85;224660;1245;139930;-67
2022/10/19 14:59:23;;;;;;;6.20;2.70;;;;;;;14.82;51.19;99649.23;224759;1244;139727;-67
2022/10/19 15:04:32;;;;;;;5.60;2.70;;;;;;;14.81;51.37;99652.54;224088;1251;139353;-65
2022/10/19 15:09:42;;;;;;;11.60;3.10;;;;;;;14.78;51.44;99653.86;224145;1245;139109;-69
2022/10/19 15:14:51;;;;;;;9.10;2.70;;;;;;;14.77;51.49;99656.41;223987;1240;139624;-70
2022/10/19 15:20:01;;;;;;;4.10;2.30;;;;;;;14.75;51.91;99665.34;224692;1247;139618;-65
2022/10/19 15:25:07;;;;;;;11.00;2.80;;;;;;;14.69;52.03;99673.06;224791;1244;139240;-67
2022/10/19 15:30:16;;;;;;;8.70;2.90;;;;;;;14.58;52.47;99671.83;224762;1245;139804;-66
2022/10/19 15:35:28;;;;;;;;;;;;;;;14.53;52.70;99677.90;224079;1251;139404;-65
2022/10/19 15:40:39;;;;;;;6.20;2.90;;;;;;;14.48;53.03;99681.42;224130;1241;126165;-65
2022/10/19 15:45:42;;;;;;;8.80;3.70;;;;;;;14.46;53.20;99678.69;224767;1244;139595;-66
2022/10/19 15:50:48;;;;;;;8.90;3.00;;;;;;;14.46;53.26;99684.43;223980;1257;139501;-66
2022/10/19 15:55:52;;;;;;;6.70;2.60;;;;;;;14.43;53.34;99683.92;223994;1248;140042;-68
2022/10/19 16:00:54;;;;;;;5.90;2.00;;;;;;;14.39;53.34;99682.34;224071;1246;139167;-67
2022/10/19 16:05:57;;;;;;;4.60;2.30;;;;;;;14.40;53.44;99681.74;224107;1245;139665;-65
2022/10/19 16:11:02;;;;;;;5.50;1.40;;;;;;;14.39;53.36;99693.04;224788;1231;139848;-67
2022/10/19 16:16:09;;;;;;;29.40;22.50;;;;;;;14.37;53.40;99705.17;224780;1241;140283;-64
2022/10/19 16:21:14;;;;;;;3.90;2.10;;;;;;;14.34;53.43;99713.96;223993;1254;139212;-64
2022/10/19 16:26:17;;;;;;;3.00;1.60;;;;;;;14.33;53.49;99721.14;224020;1245;140226;-66
2022/10/19 16:31:21;;;;;;;2.70;1.50;;;;;;;14.32;53.53;99732.46;224146;1252;138995;-67
2022/10/19 16:36:24;;;;;;;3.70;1.80;;;;;;;14.33;53.51;99731.89;224084;1245;139014;-62
2022/10/19 16:41:27;;;;;;;5.30;1.80;;;;;;;14.30;53.51;99733.71;223938;1249;141642;-61
2022/10/19 16:46:30;;;;;;;5.20;2.20;;;;;;;14.24;53.65;99737.84;223846;1238;139497;-65
2022/10/19 16:51:38;;;;;;;98.60;68.70;;;;;;;14.22;53.93;99738.15;224007;1246;139557;-60
2022/10/19 16:56:44;;;;;;;6.20;3.70;;;;;;;14.22;54.32;99746.51;224768;1244;140605;-65
2022/10/19 17:01:55;;;;;;;4.80;2.50;;;;;;;14.14;54.28;99758.46;224128;1251;139367;-64
2022/10/19 17:06:59;;;;;;;4.20;2.50;;;;;;;14.07;54.58;99779.98;223959;1246;139278;-60
2022/10/19 17:12:03;;;;;;;7.90;2.50;;;;;;;14.02;55.01;99783.34;224781;1244;139354;-64
2022/10/19 17:17:07;;;;;;;3.50;2.70;;;;;;;13.99;55.56;99774.48;224070;1246;138751;-60
2022/10/19 17:22:10;;;;;;;6.60;3.10;;;;;;;13.90;55.76;99778.73;224056;1245;139273;-61
2022/10/19 17:27:13;;;;;;;6.70;2.70;;;;;;;13.87;55.87;99779.69;224680;1244;139189;-63
2022/10/19 17:32:16;;;;;;;5.90;2.70;;;;;;;13.83;56.09;99788.50;224022;1254;139234;-62
2022/10/19 17:37:19;;;;;;;7.00;3.30;;;;;;;13.82;56.45;99800.84;224013;1237;139335;-64
2022/10/19 17:42:22;;;;;;;5.70;2.80;;;;;;;13.83;56.50;99803.80;224057;1253;139033;-63
2022/10/19 17:47:25;;;;;;;6.30;2.70;;;;;;;13.83;56.50;99808.99;223890;1254;139965;-62
2022/10/19 17:52:27;;;;;;;5.60;2.60;;;;;;;13.76;56.59;99810.30;223700;1254;139459;-62
2022/10/19 17:57:31;;;;;;;3.70;2.30;;;;;;;13.70;56.80;99810.52;223794;1255;139263;-64
2022/10/19 18:02:34;;;;;;;4.80;2.00;;;;;;;13.70;57.07;99817.78;224666;1243;139514;-65
2022/10/19 18:07:37;;;;;;;170.70;106.40;;;;;;;13.75;57.26;99823.04;223885;1248;139623;-64
2022/10/19 18:12:40;;;;;;;4.90;3.10;;;;;;;13.78;57.43;99830.00;223850;1254;141439;-63
2022/10/19 18:17:43;;;;;;;3.30;2.30;;;;;;;13.83;57.62;99835.73;224460;1245;140101;-65
2022/10/19 18:22:47;;;;;;;3.80;2.30;;;;;;;13.86;57.54;99840.36;224553;1238;139662;-63
2022/10/19 18:27:50;;;;;;;4.20;2.90;;;;;;;13.85;57.45;99839.55;223805;1246;140080;-63
2022/10/19 18:32:53;;;;;;;4.20;2.20;;;;;;;13.81;57.54;99838.91;223877;1245;139072;-64
2022/10/19 18:37:56;;;;;;;3.80;2.00;;;;;;;13.78;57.64;99842.12;224599;1243;139636;-64
2022/10/19 18:42:59;;;;;;;4.10;2.60;;;;;;;13.72;57.45;99841.63;223834;1248;139131;-63
2022/10/19 18:48:02;;;;;;;4.60;2.80;;;;;;;13.64;57.55;99851.92;224020;1252;141050;-64
2022/10/19 18:53:05;;;;;;;4.80;2.90;;;;;;;13.58;57.73;99857.24;224007;1252;139184;-64
2022/10/19 18:58:08;;;;;;;6.40;3.50;;;;;;;13.51;57.73;99862.14;223979;1252;140032;-64
2022/10/19 19:03:11;;;;;;;6.00;3.40;;;;;;;13.44;57.82;99865.07;224665;1247;141029;-66
2022/10/19 19:08:14;;;;;;;6.10;3.50;;;;;;;13.38;58.00;99868.27;224728;1225;139091;-66
2022/10/19 19:13:17;;;;;;;5.70;3.00;;;;;;;13.31;57.94;99876.20;224078;1248;139753;-67
2022/10/19 19:18:21;;;;;;;6.50;3.90;;;;;;;13.28;58.31;99883.36;224048;1253;139629;-67
2022/10/19 19:23:24;;;;;;;7.10;3.70;;;;;;;13.21;58.25;99887.64;224139;1251;140125;-66
2022/10/19 19:28:27;;;;;;;4.90;3.10;;;;;;;13.13;58.45;99886.51;224117;1257;139919;-64
2022/10/19 19:33:30;;;;;;;6.50;3.80;;;;;;;13.12;58.41;99888.85;224683;1249;140587;-64
2022/10/19 19:38:34;;;;;;;6.00;3.60;;;;;;;13.13;58.59;99891.31;223910;1237;140142;-64
2022/10/19 19:43:38;;;;;;;7.30;4.90;;;;;;;13.14;58.58;99894.95;223889;1239;139264;-65
2022/10/19 19:48:43;;;;;;;53.90;39.20;;;;;;;13.23;59.89;99905.69;223941;1257;138854;-64
2022/10/19 19:53:46;;;;;;;9.80;5.10;;;;;;;13.41;59.48;99911.58;224013;1254;139799;-65
2022/10/19 19:58:54;;;;;;;7.50;5.50;;;;;;;13.39;58.85;99912.98;223968;1250;139223;-64
2022/10/19 20:03:58;;;;;;;12.30;7.90;;;;;;;13.33;58.83;99916.33;224767;1250;140422;-63
2022/10/19 20:09:03;;;;;;;8.40;4.70;;;;;;;13.28;58.68;99916.33;224016;1248;139495;-65
2022/10/19 20:14:06;;;;;;;6.20;4.20;;;;;;;13.24;58.80;99919.72;224098;1258;140603;-64
2022/10/19 20:19:12;;;;;;;7.50;4.90;;;;;;;13.20;58.78;99920.11;224030;1254;139159;-65
2022/10/19 20:24:15;;;;;;;;;;;;;;;13.17;58.69;99919.20;224725;1247;139070;-65
2022/10/19 20:29:21;;;;;;;8.10;4.50;;;;;;;13.10;58.82;99923.71;224019;1257;127092;-65
2022/10/19 20:34:23;;;;;;;7.20;4.90;;;;;;;13.01;58.82;99936.20;224025;1255;139580;-64
2022/10/19 20:39:27;;;;;;;8.00;5.00;;;;;;;12.91;58.84;99936.55;224741;1241;139211;-60
2022/10/19 20:44:30;;;;;;;6.90;4.10;;;;;;;12.80;58.78;99943.29;224757;1243;139184;-60
2022/10/19 20:49:33;;;;;;;6.00;3.50;;;;;;;12.67;59.00;99940.46;224078;1250;139140;-65
2022/10/19 20:54:36;;;;;;;5.70;3.50;;;;;;;12.61;59.25;99941.85;227253;1213;141275;-59
2022/10/19 20:59:39;;;;;;;5.60;3.70;;;;;;;12.64;59.18;99943.99;224156;1251;139396;-59
2022/10/19 21:04:42;;;;;;;5.30;3.60;;;;;;;12.66;59.13;99942.45;224906;1241;139006;-59
2022/10/19 21:09:45;;;;;;;5.80;3.60;;;;;;;12.67;59.36;99941.50;224211;1251;139141;-64
2022/10/19 21:14:48;;;;;;;5.80;3.90;;;;;;;12.66;59.28;99949.40;224239;1250;138884;-60
2022/10/19 21:19:51;;;;;;;5.40;3.80;;;;;;;12.61;59.44;99948.61;224152;1251;139800;-62
2022/10/19 21:24:58;;;;;;;5.90;3.70;;;;;;;12.56;59.62;99954.02;224120;1251;139149;-63
2022/10/19 21:30:02;;;;;;;14.30;8.90;;;;;;;12.50;59.54;99959.03;224919;1236;139347;-62
2022/10/19 21:35:06;;;;;;;7.10;4.10;;;;;;;12.44;59.50;99962.56;224858;1251;139365;-61
2022/10/19 21:40:09;;;;;;;7.40;4.30;;;;;;;12.41;59.76;99958.58;224095;1249;139169;-61
2022/10/19 21:45:12;;;;;;;8.00;4.30;;;;;;;12.37;60.25;99950.83;224182;1251;139269;-62
2022/10/19 21:50:33;;;;;;;7.90;3.80;;;;;;;12.34;60.03;99952.92;224892;1243;138847;-62
2022/10/19 21:55:36;;;;;;;7.80;4.50;;;;;;;12.36;60.08;99953.56;224171;1248;140513;-61
2022/10/19 22:00:39;;;;;;;5.60;3.80;;;;;;;12.38;59.99;99952.21;224137;1244;140190;-61
2022/10/19 22:05:52;;;;;;;6.90;4.10;;;;;;;12.36;60.19;99956.39;224931;1236;140346;-62
2022/10/19 22:10:55;;;;;;;7.00;4.00;;;;;;;12.33;60.13;99959.58;224889;1241;139300;-62
2022/10/19 22:16:16;;;;;;;6.70;3.80;;;;;;;12.26;59.94;99966.52;224271;1248;139572;-61
2022/10/19 22:21:22;;;;;;;6.30;3.10;;;;;;;12.19;59.77;99963.73;224884;1244;139104;-63
2022/10/19 22:26:30;;;;;;;5.20;3.10;;;;;;;12.14;59.71;99964.73;224857;1244;139519;-64
2022/10/19 22:31:34;;;;;;;5.00;2.80;;;;;;;12.08;59.18;99965.38;224144;1245;139298;-61
2022/10/19 22:36:37;;;;;;;4.00;2.10;;;;;;;12.01;58.83;99967.15;224295;1251;139312;-62
2022/10/19 22:47:58;;;;;;;6.40;2.10;;;;;;;11.83;57.55;99975.73;224098;1251;139238;-62
2022/10/19 22:53:01;;;;;;;3.10;1.90;;;;;;;11.76;57.69;99973.41;224807;1244;140212;-62
2022/10/19 22:58:06;;;;;;;3.20;1.60;;;;;;;11.66;57.17;99976.45;224284;1244;138960;-65
2022/10/19 23:03:09;;;;;;;4.90;1.90;;;;;;;11.53;57.34;99979.38;224462;1242;138902;-62
2022/10/19 23:08:12;;;;;;;2.70;1.60;;;;;;;11.42;57.31;99982.09;224543;1248;139939;-63
2022/10/19 23:13:15;;;;;;;3.10;1.50;;;;;;;11.31;56.83;99989.58;224229;1251;140486;-64
2022/10/19 23:18:19;;;;;;;2.10;1.40;;;;;;;11.23;56.91;99995.30;224221;1252;139019;-62
2022/10/19 23:23:23;;;;;;;2.10;1.50;;;;;;;11.17;57.14;100000.07;224870;1246;139232;-63
2022/10/19 23:28:27;;;;;;;4.20;1.70;;;;;;;11.07;57.20;100002.46;224984;1237;139210;-62
2022/10/19 23:33:30;;;;;;;3.50;1.70;;;;;;;10.98;57.20;100003.81;224262;1255;139321;-64
2022/10/19 23:38:34;;;;;;;4.20;1.90;;;;;;;10.88;56.89;100006.61;224229;1250;139236;-63